sensor_id;sensor_type;location;lat;lon;timestamp;pressure;altitude;pressure_sealevel;temperature;humidity
9129;BME280;4599;50.906;6.786;2022-07-06T00:03:34;76849.03;;;-142.83;52.57
9129;BME280;4599;50.906;6.786;2022-07-06T00:07:36;76867.72;;;-142.83;52.93
9129;BME280;4599;50.906;6.786;2022-07-06T00:11:38;76888.47;;;-142.83;53.54
9129;BME280;4599;50.906;6.786;2022-07-06T00:15:40;76896.78;;;-142.83;53.35
9129;BME280;4599;50.906;6.786;2022-07-06T00:19:41;76886.41;;;-142.83;54.07
9129;BME280;4599;50.906;6.786;2022-07-06T00:23:44;76865.66;;;-142.83;54.05
9129;BME280;4599;50.906;6.786;2022-07-06T00:27:47;76880.19;;;-142.83;54.88
9129;BME280;4599;50.906;6.786;2022-07-06T00:31:48;76882.25;;;-142.83;54.07
9129;BME280;4599;50.906;6.786;2022-07-06T00:35:50;76898.88;;;-142.83;56.22
9129;BME280;4599;50.906;6.786;2022-07-06T00:39:52;76946.63;;;-142.83;55.42
9129;BME280;4599;50.906;6.786;2022-07-06T00:43:56;76944.56;;;-142.83;56.39
9129;BME280;4599;50.906;6.786;2022-07-06T00:47:58;76961.16;;;-142.83;56.39
9129;BME280;4599;50.906;6.786;2022-07-06T00:51:59;76975.69;;;-142.83;55.99
9129;BME280;4599;50.906;6.786;2022-07-06T00:56:01;76994.38;;;-142.83;56.43
9129;BME280;4599;50.906;6.786;2022-07-06T01:00:07;76998.53;;;-142.83;56.61
9129;BME280;4599;50.906;6.786;2022-07-06T01:04:10;77008.94;;;-142.83;56.93
9129;BME280;4599;50.906;6.786;2022-07-06T01:08:12;77006.84;;;-142.83;56.03
9129;BME280;4599;50.906;6.786;2022-07-06T01:12:13;77000.63;;;-142.83;57.05
9129;BME280;4599;50.906;6.786;2022-07-06T01:16:17;77021.38;;;-142.83;57.28
9129;BME280;4599;50.906;6.786;2022-07-06T01:20:22;77017.22;;;-142.83;56.89
9129;BME280;4599;50.906;6.786;2022-07-06T01:24:24;77023.47;;;-142.83;57.78
9129;BME280;4599;50.906;6.786;2022-07-06T01:28:25;77004.78;;;-142.83;57.53
9129;BME280;4599;50.906;6.786;2022-07-06T01:32:27;77025.53;;;-142.83;57.69
9129;BME280;4599;50.906;6.786;2022-07-06T01:36:30;77035.91;;;-142.83;57.25
9129;BME280;4599;50.906;6.786;2022-07-06T01:40:32;77046.31;;;-142.83;57.04
9129;BME280;4599;50.906;6.786;2022-07-06T01:44:33;77071.22;;;-142.83;57.62
9129;BME280;4599;50.906;6.786;2022-07-06T01:48:35;77067.06;;;-142.83;57.67
9129;BME280;4599;50.906;6.786;2022-07-06T01:52:38;77065.00;;;-142.83;57.95
9129;BME280;4599;50.906;6.786;2022-07-06T01:56:40;77071.22;;;-142.83;58.12
9129;BME280;4599;50.906;6.786;2022-07-06T02:00:41;77092.00;;;-142.83;58.16
9129;BME280;4599;50.906;6.786;2022-07-06T02:04:43;77110.69;;;-142.83;59.32
9129;BME280;4599;50.906;6.786;2022-07-06T02:08:46;77108.59;;;-142.83;58.83
9129;BME280;4599;50.906;6.786;2022-07-06T02:12:48;77094.06;;;-142.83;59.03
9129;BME280;4599;50.906;6.786;2022-07-06T02:16:49;77083.69;;;-142.83;58.67
9129;BME280;4599;50.906;6.786;2022-07-06T02:20:51;77102.38;;;-142.83;59.63
9129;BME280;4599;50.906;6.786;2022-07-06T02:24:54;77114.81;;;-142.83;59.39
9129;BME280;4599;50.906;6.786;2022-07-06T02:28:56;77133.53;;;-142.83;59.87
9129;BME280;4599;50.906;6.786;2022-07-06T02:32:57;77129.38;;;-142.83;59.64
9129;BME280;4599;50.906;6.786;2022-07-06T02:37:01;77137.66;;;-142.83;60.42
9129;BME280;4599;50.906;6.786;2022-07-06T02:41:03;77135.59;;;-142.83;60.14
9129;BME280;4599;50.906;6.786;2022-07-06T02:45:06;77150.13;;;-142.83;59.40
9129;BME280;4599;50.906;6.786;2022-07-06T02:49:08;77133.53;;;-142.83;59.54
9129;BME280;4599;50.906;6.786;2022-07-06T02:53:09;77137.66;;;-142.83;59.63
9129;BME280;4599;50.906;6.786;2022-07-06T02:57:12;77125.22;;;-142.83;59.62
9129;BME280;4599;50.906;6.786;2022-07-06T03:01:14;77150.13;;;-142.83;60.19
9129;BME280;4599;50.906;6.786;2022-07-06T03:05:15;77148.06;;;-142.83;60.34
9129;BME280;4599;50.906;6.786;2022-07-06T03:09:17;77143.91;;;-142.83;60.15
9129;BME280;4599;50.906;6.786;2022-07-06T03:13:20;77162.59;;;-142.83;60.98
9129;BME280;4599;50.906;6.786;2022-07-06T03:17:22;77187.50;;;-142.83;61.16
9129;BME280;4599;50.906;6.786;2022-07-06T03:21:23;77189.59;;;-142.83;61.19
9129;BME280;4599;50.906;6.786;2022-07-06T03:25:25;77185.44;;;-142.83;61.13
9129;BME280;4599;50.906;6.786;2022-07-06T03:29:28;77168.81;;;-142.83;60.71
9129;BME280;4599;50.906;6.786;2022-07-06T03:33:29;77212.44;;;-142.83;62.35
9129;BME280;4599;50.906;6.786;2022-07-06T03:37:31;77218.66;;;-142.83;61.96
9129;BME280;4599;50.906;6.786;2022-07-06T03:41:32;77239.44;;;-142.83;62.26
9129;BME280;4599;50.906;6.786;2022-07-06T03:45:35;77262.28;;;-142.83;62.40
9129;BME280;4599;50.906;6.786;2022-07-06T03:49:37;77274.72;;;-142.83;62.87
9129;BME280;4599;50.906;6.786;2022-07-06T03:53:38;77274.72;;;-142.83;62.98
9129;BME280;4599;50.906;6.786;2022-07-06T03:57:40;77291.34;;;-142.83;63.28
9129;BME280;4599;50.906;6.786;2022-07-06T04:01:43;77287.19;;;-142.83;63.95
9129;BME280;4599;50.906;6.786;2022-07-06T04:05:45;77278.88;;;-142.83;63.33
9129;BME280;4599;50.906;6.786;2022-07-06T04:09:46;77299.66;;;-142.83;64.19
9129;BME280;4599;50.906;6.786;2022-07-06T04:13:47;77280.97;;;-142.83;64.23
9129;BME280;4599;50.906;6.786;2022-07-06T04:17:50;77293.41;;;-142.83;64.31
9129;BME280;4599;50.906;6.786;2022-07-06T04:21:52;77289.28;;;-142.83;64.14
9129;BME280;4599;50.906;6.786;2022-07-06T04:25:53;77287.19;;;-142.83;64.47
9129;BME280;4599;50.906;6.786;2022-07-06T04:29:55;77283.03;;;-142.83;63.65
9129;BME280;4599;50.906;6.786;2022-07-06T04:33:58;77297.56;;;-142.83;64.58
9129;BME280;4599;50.906;6.786;2022-07-06T04:37:59;77274.72;;;-142.83;65.11
9129;BME280;4599;50.906;6.786;2022-07-06T04:42:01;77237.34;;;-142.83;64.13
9129;BME280;4599;50.906;6.786;2022-07-06T04:46:02;77214.50;;;-142.83;67.24
9129;BME280;4599;50.906;6.786;2022-07-06T04:50:06;77222.81;;;-142.83;68.32
9129;BME280;4599;50.906;6.786;2022-07-06T04:54:08;77214.50;;;-142.83;66.40
9129;BME280;4599;50.906;6.786;2022-07-06T04:58:09;77191.66;;;-142.83;66.08
9129;BME280;4599;50.906;6.786;2022-07-06T05:02:11;77121.06;;;-142.83;65.00
9129;BME280;4599;50.906;6.786;2022-07-06T05:06:14;77116.91;;;-142.83;66.06
9129;BME280;4599;50.906;6.786;2022-07-06T05:10:16;77108.59;;;-142.83;65.31
9129;BME280;4599;50.906;6.786;2022-07-06T05:14:17;77085.75;;;-142.83;64.20
9129;BME280;4599;50.906;6.786;2022-07-06T05:18:19;77025.53;;;-142.83;61.58
9129;BME280;4599;50.906;6.786;2022-07-06T05:22:22;77038.00;;;-142.83;63.39
9129;BME280;4599;50.906;6.786;2022-07-06T05:26:24;77013.06;;;-142.83;61.24
9129;BME280;4599;50.906;6.786;2022-07-06T05:30:26;76979.84;;;-142.83;61.78
9129;BME280;4599;50.906;6.786;2022-07-06T05:34:28;77029.69;;;-142.83;61.26
9129;BME280;4599;50.906;6.786;2022-07-06T05:38:31;76977.78;;;-142.83;60.25
9129;BME280;4599;50.906;6.786;2022-07-06T05:42:32;76900.94;;;-142.83;58.41
9129;BME280;4599;50.906;6.786;2022-07-06T05:46:34;76878.09;;;-142.83;57.09
9129;BME280;4599;50.906;6.786;2022-07-06T05:50:35;76884.34;;;-142.83;56.42
9129;BME280;4599;50.906;6.786;2022-07-06T05:54:38;76913.41;;;-142.83;58.38
9129;BME280;4599;50.906;6.786;2022-07-06T05:58:40;76873.94;;;-142.83;57.50
9129;BME280;4599;50.906;6.786;2022-07-06T06:02:42;76749.38;;;-142.83;54.67
9129;BME280;4599;50.906;6.786;2022-07-06T06:06:44;76776.34;;;-142.83;55.43
9129;BME280;4599;50.906;6.786;2022-07-06T06:10:47;76861.50;;;-142.83;56.68
9129;BME280;4599;50.906;6.786;2022-07-06T06:14:49;76844.88;;;-142.83;55.96
9129;BME280;4599;50.906;6.786;2022-07-06T06:18:50;76842.81;;;-142.83;55.46
9129;BME280;4599;50.906;6.786;2022-07-06T06:22:53;76768.06;;;-142.83;54.31
9129;BME280;4599;50.906;6.786;2022-07-06T06:26:57;76765.97;;;-142.83;54.48
9129;BME280;4599;50.906;6.786;2022-07-06T06:30:59;76763.91;;;-142.83;54.92
9129;BME280;4599;50.906;6.786;2022-07-06T06:35:00;76840.72;;;-142.83;55.48
9129;BME280;4599;50.906;6.786;2022-07-06T06:39:02;76822.03;;;-142.83;54.80
9129;BME280;4599;50.906;6.786;2022-07-06T06:43:05;76857.34;;;-142.83;55.04
9129;BME280;4599;50.906;6.786;2022-07-06T06:47:07;76824.13;;;-142.83;55.50
9129;BME280;4599;50.906;6.786;2022-07-06T06:51:09;76849.03;;;-142.83;55.65
9129;BME280;4599;50.906;6.786;2022-07-06T06:55:10;76873.94;;;-142.83;55.99
9129;BME280;4599;50.906;6.786;2022-07-06T06:59:13;76905.09;;;-142.83;57.94
9129;BME280;4599;50.906;6.786;2022-07-06T07:03:18;76936.25;;;-142.83;57.40
9129;BME280;4599;50.906;6.786;2022-07-06T07:07:20;76938.31;;;-142.83;58.33
9129;BME280;4599;50.906;6.786;2022-07-06T07:11:22;76950.78;;;-142.83;58.59
9129;BME280;4599;50.906;6.786;2022-07-06T07:15:25;76930.00;;;-142.83;59.26
9129;BME280;4599;50.906;6.786;2022-07-06T07:19:26;76936.25;;;-142.83;57.82
9129;BME280;4599;50.906;6.786;2022-07-06T07:23:29;76826.19;;;-142.83;56.95
9129;BME280;4599;50.906;6.786;2022-07-06T07:27:31;76707.84;;;-142.83;55.37
9129;BME280;4599;50.906;6.786;2022-07-06T07:31:34;76635.16;;;-142.83;53.13
9129;BME280;4599;50.906;6.786;2022-07-06T07:35:36;76593.63;;;-142.83;51.81
9129;BME280;4599;50.906;6.786;2022-07-06T07:39:38;76653.84;;;-142.83;52.83
9129;BME280;4599;50.906;6.786;2022-07-06T07:43:40;76678.75;;;-142.83;52.78
9129;BME280;4599;50.906;6.786;2022-07-06T07:47:44;76709.91;;;-142.83;53.25
9129;BME280;4599;50.906;6.786;2022-07-06T07:51:46;76687.06;;;-142.83;54.47
9129;BME280;4599;50.906;6.786;2022-07-06T07:55:47;76703.69;;;-142.83;53.44
9129;BME280;4599;50.906;6.786;2022-07-06T07:59:49;76693.31;;;-142.83;52.83
9129;BME280;4599;50.906;6.786;2022-07-06T08:03:52;76658.00;;;-142.83;52.12
9129;BME280;4599;50.906;6.786;2022-07-06T08:07:54;76678.75;;;-142.83;52.73
9129;BME280;4599;50.906;6.786;2022-07-06T08:11:56;76670.47;;;-142.83;52.31
9129;BME280;4599;50.906;6.786;2022-07-06T08:15:57;76672.53;;;-142.83;53.18
9129;BME280;4599;50.906;6.786;2022-07-06T08:20:01;76709.91;;;-142.83;51.92
9129;BME280;4599;50.906;6.786;2022-07-06T08:24:04;76707.84;;;-142.83;53.69
9129;BME280;4599;50.906;6.786;2022-07-06T08:28:05;76761.81;;;-142.83;53.24
9129;BME280;4599;50.906;6.786;2022-07-06T08:32:07;76755.59;;;-142.83;54.35
9129;BME280;4599;50.906;6.786;2022-07-06T08:36:24;76763.91;;;-142.83;54.74
9129;BME280;4599;50.906;6.786;2022-07-06T08:40:26;76776.34;;;-142.83;54.42
9129;BME280;4599;50.906;6.786;2022-07-06T08:44:32;76782.59;;;-142.83;53.11
9129;BME280;4599;50.906;6.786;2022-07-06T08:48:37;76774.28;;;-142.83;53.47
9129;BME280;4599;50.906;6.786;2022-07-06T08:52:40;76776.34;;;-142.83;52.82
9129;BME280;4599;50.906;6.786;2022-07-06T08:56:42;76780.50;;;-142.83;52.81
9129;BME280;4599;50.906;6.786;2022-07-06T09:00:49;76772.19;;;-142.83;55.48
9129;BME280;4599;50.906;6.786;2022-07-06T09:04:53;76763.91;;;-142.83;53.85
9129;BME280;4599;50.906;6.786;2022-07-06T09:08:57;76788.81;;;-142.83;53.94
9129;BME280;4599;50.906;6.786;2022-07-06T09:13:03;76770.13;;;-142.83;55.07
9129;BME280;4599;50.906;6.786;2022-07-06T09:17:06;76747.28;;;-142.83;55.58
9129;BME280;4599;50.906;6.786;2022-07-06T09:21:22;76776.34;;;-142.83;53.61
9129;BME280;4599;50.906;6.786;2022-07-06T09:25:26;76780.50;;;-142.83;53.80
9129;BME280;4599;50.906;6.786;2022-07-06T09:29:28;76792.97;;;-142.83;55.64
9129;BME280;4599;50.906;6.786;2022-07-06T09:33:30;76786.75;;;-142.83;55.13
9129;BME280;4599;50.906;6.786;2022-07-06T09:37:31;76784.66;;;-142.83;54.64
9129;BME280;4599;50.906;6.786;2022-07-06T09:41:35;76772.19;;;-142.83;53.81
9129;BME280;4599;50.906;6.786;2022-07-06T09:45:38;76768.06;;;-142.83;53.98
9129;BME280;4599;50.906;6.786;2022-07-06T09:49:40;76755.59;;;-142.83;52.67
9129;BME280;4599;50.906;6.786;2022-07-06T09:53:41;76745.22;;;-142.83;52.72
9129;BME280;4599;50.906;6.786;2022-07-06T09:57:53;76711.97;;;-142.83;51.37
9129;BME280;4599;50.906;6.786;2022-07-06T10:01:58;76599.88;;;-142.83;49.62
9129;BME280;4599;50.906;6.786;2022-07-06T10:06:00;76506.44;;;-142.83;47.96
9129;BME280;4599;50.906;6.786;2022-07-06T10:10:02;76496.03;;;-142.83;48.40
9129;BME280;4599;50.906;6.786;2022-07-06T10:14:07;76433.75;;;-142.83;46.92
9129;BME280;4599;50.906;6.786;2022-07-06T10:18:09;76496.03;;;-142.83;46.58
9129;BME280;4599;50.906;6.786;2022-07-06T10:22:11;76284.28;;;-142.83;46.42
9129;BME280;4599;50.906;6.786;2022-07-06T10:26:14;76207.44;;;-142.83;42.73
9129;BME280;4599;50.906;6.786;2022-07-06T10:30:18;76259.34;;;-142.83;43.09
9129;BME280;4599;50.906;6.786;2022-07-06T10:34:20;76352.78;;;-142.83;43.53
9129;BME280;4599;50.906;6.786;2022-07-06T10:38:30;76365.25;;;-142.83;43.15
9129;BME280;4599;50.906;6.786;2022-07-06T10:42:39;76371.47;;;-142.83;43.58
9129;BME280;4599;50.906;6.786;2022-07-06T10:46:49;76205.38;;;-142.83;42.56
9129;BME280;4599;50.906;6.786;2022-07-06T10:50:53;76215.75;;;-142.83;42.71
9129;BME280;4599;50.906;6.786;2022-07-06T10:54:56;76145.16;;;-142.83;40.88
9129;BME280;4599;50.906;6.786;2022-07-06T10:59:02;76074.56;;;-142.83;40.11
9129;BME280;4599;50.906;6.786;2022-07-06T11:03:35;76057.97;;;-142.83;40.73
9129;BME280;4599;50.906;6.786;2022-07-06T11:07:48;75937.56;;;-142.83;39.78
9129;BME280;4599;50.906;6.786;2022-07-06T11:11:50;75974.94;;;-142.83;38.55
9129;BME280;4599;50.906;6.786;2022-07-06T11:16:00;76045.50;;;-142.83;38.97
9129;BME280;4599;50.906;6.786;2022-07-06T11:20:10;76055.91;;;-142.83;38.81
9129;BME280;4599;50.906;6.786;2022-07-06T11:24:14;76120.25;;;-142.83;38.56
9129;BME280;4599;50.906;6.786;2022-07-06T11:28:16;76099.50;;;-142.83;37.39
9129;BME280;4599;50.906;6.786;2022-07-06T11:32:23;75914.72;;;-142.83;38.56
9129;BME280;4599;50.906;6.786;2022-07-06T11:36:27;75893.97;;;-142.83;35.82
9129;BME280;4599;50.906;6.786;2022-07-06T11:40:37;75983.22;;;-142.83;37.77
9129;BME280;4599;50.906;6.786;2022-07-06T11:44:40;75993.63;;;-142.83;37.81
9129;BME280;4599;50.906;6.786;2022-07-06T11:48:45;76068.34;;;-142.83;38.04
9129;BME280;4599;50.906;6.786;2022-07-06T11:52:48;76128.56;;;-142.83;38.51
9129;BME280;4599;50.906;6.786;2022-07-06T11:56:51;76132.72;;;-142.83;38.72
9129;BME280;4599;50.906;6.786;2022-07-06T12:01:03;76217.84;;;-142.83;40.68
9129;BME280;4599;50.906;6.786;2022-07-06T12:05:06;76278.03;;;-142.83;39.81
9129;BME280;4599;50.906;6.786;2022-07-06T12:09:10;76305.03;;;-142.83;38.22
9129;BME280;4599;50.906;6.786;2022-07-06T12:13:12;76294.66;;;-142.83;40.21
9129;BME280;4599;50.906;6.786;2022-07-06T12:17:14;76269.72;;;-142.83;40.59
9129;BME280;4599;50.906;6.786;2022-07-06T12:21:18;76230.28;;;-142.83;41.67
9129;BME280;4599;50.906;6.786;2022-07-06T12:25:30;76244.81;;;-142.83;40.99
9129;BME280;4599;50.906;6.786;2022-07-06T12:29:32;76244.81;;;-142.83;40.27
9129;BME280;4599;50.906;6.786;2022-07-06T12:33:33;76224.06;;;-142.83;39.37
9129;BME280;4599;50.906;6.786;2022-07-06T12:37:35;76230.28;;;-142.83;38.81
9129;BME280;4599;50.906;6.786;2022-07-06T12:41:44;76124.41;;;-142.83;40.71
9129;BME280;4599;50.906;6.786;2022-07-06T12:45:46;76128.56;;;-142.83;38.58
9129;BME280;4599;50.906;6.786;2022-07-06T12:49:47;76078.72;;;-142.83;37.53
9129;BME280;4599;50.906;6.786;2022-07-06T12:53:49;76101.56;;;-142.83;38.14
9129;BME280;4599;50.906;6.786;2022-07-06T12:57:52;76126.47;;;-142.83;39.10
9129;BME280;4599;50.906;6.786;2022-07-06T13:01:54;76107.78;;;-142.83;39.26
9129;BME280;4599;50.906;6.786;2022-07-06T13:05:55;76095.34;;;-142.83;37.86
9129;BME280;4599;50.906;6.786;2022-07-06T13:09:57;76064.19;;;-142.83;38.98
9129;BME280;4599;50.906;6.786;2022-07-06T13:14:01;76078.72;;;-142.83;39.55
9129;BME280;4599;50.906;6.786;2022-07-06T13:18:02;76045.50;;;-142.83;38.75
9129;BME280;4599;50.906;6.786;2022-07-06T13:22:10;76074.56;;;-142.83;38.51
9129;BME280;4599;50.906;6.786;2022-07-06T13:26:12;75920.94;;;-142.83;36.63
9129;BME280;4599;50.906;6.786;2022-07-06T13:30:15;76006.06;;;-142.83;36.84
9129;BME280;4599;50.906;6.786;2022-07-06T13:34:17;75979.09;;;-142.83;38.27
9129;BME280;4599;50.906;6.786;2022-07-06T13:38:19;75968.69;;;-142.83;38.05
9129;BME280;4599;50.906;6.786;2022-07-06T13:42:20;75966.63;;;-142.83;36.24
9129;BME280;4599;50.906;6.786;2022-07-06T13:46:24;75933.41;;;-142.83;36.87
9129;BME280;4599;50.906;6.786;2022-07-06T13:50:27;75835.84;;;-142.83;33.24
9129;BME280;4599;50.906;6.786;2022-07-06T13:54:29;75707.13;;;-142.83;34.67
9129;BME280;4599;50.906;6.786;2022-07-06T13:58:30;75634.47;;;-142.83;38.32
9129;BME280;4599;50.906;6.786;2022-07-06T14:02:33;75599.19;;;-142.83;33.26
9129;BME280;4599;50.906;6.786;2022-07-06T14:06:35;75688.44;;;-142.83;34.06
9129;BME280;4599;50.906;6.786;2022-07-06T14:10:37;75692.59;;;-142.83;34.72
9129;BME280;4599;50.906;6.786;2022-07-06T14:14:39;75721.66;;;-142.83;35.30
9129;BME280;4599;50.906;6.786;2022-07-06T14:18:41;75725.81;;;-142.83;33.50
9129;BME280;4599;50.906;6.786;2022-07-06T14:22:43;75769.41;;;-142.83;35.40
9129;BME280;4599;50.906;6.786;2022-07-06T14:26:45;75779.78;;;-142.83;33.94
9129;BME280;4599;50.906;6.786;2022-07-06T14:30:46;75854.53;;;-142.83;36.70
9129;BME280;4599;50.906;6.786;2022-07-06T14:34:49;75885.66;;;-142.83;36.88
9129;BME280;4599;50.906;6.786;2022-07-06T14:38:52;75904.34;;;-142.83;35.04
9129;BME280;4599;50.906;6.786;2022-07-06T14:42:54;75846.22;;;-142.83;36.87
9129;BME280;4599;50.906;6.786;2022-07-06T14:46:56;75835.84;;;-142.83;35.61
9129;BME280;4599;50.906;6.786;2022-07-06T14:50:59;75842.06;;;-142.83;36.59
9129;BME280;4599;50.906;6.786;2022-07-06T14:55:01;75877.34;;;-142.83;34.94
9129;BME280;4599;50.906;6.786;2022-07-06T14:59:02;75889.81;;;-142.83;37.04
9129;BME280;4599;50.906;6.786;2022-07-06T15:03:24;75854.53;;;-142.83;36.61
9129;BME280;4599;50.906;6.786;2022-07-06T15:07:27;75873.19;;;-142.83;35.57
9129;BME280;4599;50.906;6.786;2022-07-06T15:11:29;75920.94;;;-142.83;36.44
9129;BME280;4599;50.906;6.786;2022-07-06T15:15:30;75891.88;;;-142.83;35.71
9129;BME280;4599;50.906;6.786;2022-07-06T15:19:52;75881.50;;;-142.83;36.54
9129;BME280;4599;50.906;6.786;2022-07-06T15:23:55;75920.94;;;-142.83;35.48
9129;BME280;4599;50.906;6.786;2022-07-06T15:27:57;75952.09;;;-142.83;35.49
9129;BME280;4599;50.906;6.786;2022-07-06T15:31:59;75947.94;;;-142.83;37.07
9129;BME280;4599;50.906;6.786;2022-07-06T15:36:00;75935.47;;;-142.83;35.98
9129;BME280;4599;50.906;6.786;2022-07-06T15:40:05;75933.41;;;-142.83;37.83
9129;BME280;4599;50.906;6.786;2022-07-06T15:44:07;75935.47;;;-142.83;36.02
9129;BME280;4599;50.906;6.786;2022-07-06T15:48:08;75945.88;;;-142.83;36.77
9129;BME280;4599;50.906;6.786;2022-07-06T15:52:10;75931.34;;;-142.83;36.32
9129;BME280;4599;50.906;6.786;2022-07-06T15:56:13;75912.66;;;-142.83;36.83
9129;BME280;4599;50.906;6.786;2022-07-06T16:00:15;75929.25;;;-142.83;37.08
9129;BME280;4599;50.906;6.786;2022-07-06T16:04:17;75927.19;;;-142.83;37.09
9129;BME280;4599;50.906;6.786;2022-07-06T16:08:19;75939.63;;;-142.83;35.92
9129;BME280;4599;50.906;6.786;2022-07-06T16:12:30;75945.88;;;-142.83;37.51
9129;BME280;4599;50.906;6.786;2022-07-06T16:16:32;75927.19;;;-142.83;36.94
9129;BME280;4599;50.906;6.786;2022-07-06T16:20:34;75954.16;;;-142.83;36.56
9129;BME280;4599;50.906;6.786;2022-07-06T16:24:35;75939.63;;;-142.83;36.60
9129;BME280;4599;50.906;6.786;2022-07-06T16:28:38;75950.00;;;-142.83;37.86
9129;BME280;4599;50.906;6.786;2022-07-06T16:32:40;75931.34;;;-142.83;37.15
9129;BME280;4599;50.906;6.786;2022-07-06T16:36:41;75916.81;;;-142.83;36.88
9129;BME280;4599;50.906;6.786;2022-07-06T16:40:44;75945.88;;;-142.83;37.03
9129;BME280;4599;50.906;6.786;2022-07-06T16:44:47;75970.78;;;-142.83;38.08
9129;BME280;4599;50.906;6.786;2022-07-06T16:48:48;75974.94;;;-142.83;36.90
9129;BME280;4599;50.906;6.786;2022-07-06T16:52:50;75974.94;;;-142.83;37.42
9129;BME280;4599;50.906;6.786;2022-07-06T16:56:52;75968.69;;;-142.83;39.38
9129;BME280;4599;50.906;6.786;2022-07-06T17:00:55;75968.69;;;-142.83;39.89
9129;BME280;4599;50.906;6.786;2022-07-06T17:04:57;75952.09;;;-142.83;37.86
9129;BME280;4599;50.906;6.786;2022-07-06T17:08:58;75970.78;;;-142.83;39.29
9129;BME280;4599;50.906;6.786;2022-07-06T17:13:00;75999.84;;;-142.83;38.97
9129;BME280;4599;50.906;6.786;2022-07-06T17:17:03;76037.22;;;-142.83;39.35
9129;BME280;4599;50.906;6.786;2022-07-06T17:21:05;76024.75;;;-142.83;40.25
9129;BME280;4599;50.906;6.786;2022-07-06T17:25:08;76001.91;;;-142.83;38.88
9129;BME280;4599;50.906;6.786;2022-07-06T17:29:10;75983.22;;;-142.83;38.29
9129;BME280;4599;50.906;6.786;2022-07-06T17:33:13;75974.94;;;-142.83;38.80
9129;BME280;4599;50.906;6.786;2022-07-06T17:37:15;75991.53;;;-142.83;41.44
9129;BME280;4599;50.906;6.786;2022-07-06T17:41:17;75993.63;;;-142.83;39.99
9129;BME280;4599;50.906;6.786;2022-07-06T17:45:19;76012.28;;;-142.83;39.40
9129;BME280;4599;50.906;6.786;2022-07-06T17:49:21;76039.28;;;-142.83;40.14
9129;BME280;4599;50.906;6.786;2022-07-06T17:53:23;76033.06;;;-142.83;41.60
9129;BME280;4599;50.906;6.786;2022-07-06T17:57:25;76026.84;;;-142.83;39.64
9129;BME280;4599;50.906;6.786;2022-07-06T18:01:27;76053.81;;;-142.83;41.19
9129;BME280;4599;50.906;6.786;2022-07-06T18:05:30;76051.75;;;-142.83;40.25
9129;BME280;4599;50.906;6.786;2022-07-06T18:09:31;76037.22;;;-142.83;44.04
9129;BME280;4599;50.906;6.786;2022-07-06T18:13:33;76057.97;;;-142.83;40.93
9129;BME280;4599;50.906;6.786;2022-07-06T18:17:34;76035.13;;;-142.83;41.00
9129;BME280;4599;50.906;6.786;2022-07-06T18:21:37;76062.13;;;-142.83;41.35
9129;BME280;4599;50.906;6.786;2022-07-06T18:25:39;76066.28;;;-142.83;40.88
9129;BME280;4599;50.906;6.786;2022-07-06T18:29:41;76070.44;;;-142.83;41.13
9129;BME280;4599;50.906;6.786;2022-07-06T18:33:42;76064.19;;;-142.83;42.61
9129;BME280;4599;50.906;6.786;2022-07-06T18:37:45;76078.72;;;-142.83;41.51
9129;BME280;4599;50.906;6.786;2022-07-06T18:41:47;76070.44;;;-142.83;42.22
9129;BME280;4599;50.906;6.786;2022-07-06T18:45:54;76074.56;;;-142.83;41.20
9129;BME280;4599;50.906;6.786;2022-07-06T18:49:56;76062.13;;;-142.83;41.54
9129;BME280;4599;50.906;6.786;2022-07-06T18:53:59;76076.66;;;-142.83;41.67
9129;BME280;4599;50.906;6.786;2022-07-06T18:58:01;76078.72;;;-142.83;42.45
9129;BME280;4599;50.906;6.786;2022-07-06T19:02:03;76089.09;;;-142.83;43.69
9129;BME280;4599;50.906;6.786;2022-07-06T19:06:05;76103.66;;;-142.83;42.33
9129;BME280;4599;50.906;6.786;2022-07-06T19:10:09;76084.97;;;-142.83;44.12
9129;BME280;4599;50.906;6.786;2022-07-06T19:14:11;76089.09;;;-142.83;42.94
9129;BME280;4599;50.906;6.786;2022-07-06T19:18:12;76095.34;;;-142.83;43.21
9129;BME280;4599;50.906;6.786;2022-07-06T19:22:14;76103.66;;;-142.83;43.72
9129;BME280;4599;50.906;6.786;2022-07-06T19:26:17;76101.56;;;-142.83;45.05
9129;BME280;4599;50.906;6.786;2022-07-06T19:30:18;76114.03;;;-142.83;46.87
9129;BME280;4599;50.906;6.786;2022-07-06T19:34:20;76111.94;;;-142.83;45.40
9129;BME280;4599;50.906;6.786;2022-07-06T19:38:21;76120.25;;;-142.83;47.23
9129;BME280;4599;50.906;6.786;2022-07-06T19:42:24;76147.25;;;-142.83;46.97
9129;BME280;4599;50.906;6.786;2022-07-06T19:46:26;76151.41;;;-142.83;45.40
9129;BME280;4599;50.906;6.786;2022-07-06T19:50:28;76170.06;;;-142.83;48.32
9129;BME280;4599;50.906;6.786;2022-07-06T19:54:29;76188.75;;;-142.83;48.57
9129;BME280;4599;50.906;6.786;2022-07-06T19:58:32;76211.59;;;-142.83;48.97
9129;BME280;4599;50.906;6.786;2022-07-06T20:02:34;76226.13;;;-142.83;49.71
9129;BME280;4599;50.906;6.786;2022-07-06T20:06:36;76232.38;;;-142.83;49.51
9129;BME280;4599;50.906;6.786;2022-07-06T20:10:38;76228.22;;;-142.83;50.10
9129;BME280;4599;50.906;6.786;2022-07-06T20:14:41;76242.75;;;-142.83;50.09
9129;BME280;4599;50.906;6.786;2022-07-06T20:18:43;76269.72;;;-142.83;50.52
9129;BME280;4599;50.906;6.786;2022-07-06T20:22:49;76261.44;;;-142.83;50.57
9129;BME280;4599;50.906;6.786;2022-07-06T20:26:50;76257.28;;;-142.83;50.44
9129;BME280;4599;50.906;6.786;2022-07-06T20:30:54;76259.34;;;-142.83;52.71
9129;BME280;4599;50.906;6.786;2022-07-06T20:34:55;76257.28;;;-142.83;51.24
9129;BME280;4599;50.906;6.786;2022-07-06T20:38:57;76253.13;;;-142.83;51.39
9129;BME280;4599;50.906;6.786;2022-07-06T20:42:58;76278.03;;;-142.83;51.69
9129;BME280;4599;50.906;6.786;2022-07-06T20:47:21;76298.81;;;-142.83;53.48
9129;BME280;4599;50.906;6.786;2022-07-06T20:51:23;76315.41;;;-142.83;54.17
9129;BME280;4599;50.906;6.786;2022-07-06T20:55:25;76329.94;;;-142.83;53.20
9129;BME280;4599;50.906;6.786;2022-07-06T20:59:26;76336.19;;;-142.83;53.70
9129;BME280;4599;50.906;6.786;2022-07-06T21:03:29;76344.47;;;-142.83;54.73
9129;BME280;4599;50.906;6.786;2022-07-06T21:07:31;76336.19;;;-142.83;53.63
9129;BME280;4599;50.906;6.786;2022-07-06T21:11:33;76340.31;;;-142.83;53.78
9129;BME280;4599;50.906;6.786;2022-07-06T21:15:34;76332.03;;;-142.83;52.86
9129;BME280;4599;50.906;6.786;2022-07-06T21:19:37;76348.63;;;-142.83;54.21
9129;BME280;4599;50.906;6.786;2022-07-06T21:23:39;76344.47;;;-142.83;54.59
9129;BME280;4599;50.906;6.786;2022-07-06T21:27:40;76338.25;;;-142.83;53.40